Terminal Aerodrome Forecast
Issued by NWS Sioux Falls, SD

Home | Current Version | Previous Version | Graphics & Text | Print | Product List | Glossary On
Versions: 1 2 3 4 5 6 7 8 9 10 11 12 13 14 15 16
000
FTUS43 KFSD 272321
TAFFSD
TAF
KFSD 272321Z 2800/2824 15009KT P6SM SCT250
     FM280800 15012KT P6SM SCT008 BKN250
     FM281700 19008KT P6SM BKN200
     FM282000 30010KT P6SM SCT015 BKN200=

USA.gov is the U.S. government's official web portal to all federal, state and local government web resources and services.